Time;durP1;ratioP1;P1;durP2;ratioP2;P2;SDS_P1;SDS_P2;PMS_P1;PMS_P2;Temp;Humidity;BMP_temperature;BMP_pressure;BME280_temperature;BME280_humidity;BME280_pressure;Samples;Min_cycle;Max_cycle;Signal;HPM_P1;HPM_P2
2022/12/25 00:00:45;;;;;;;11.27;10.67;;;;;;;7.91;83.70;93136.06;5087108;28;20240;-71
2022/12/25 00:03:10;;;;;;;10.60;10.10;;;;;;;7.91;85.11;93143.88;5088762;28;20208;-71
2022/12/25 00:05:38;;;;;;;11.63;10.93;;;;;;;7.95;84.90;93157.94;5089227;28;20193;-70
2022/12/25 00:08:05;;;;;;;10.90;10.40;;;;;;;7.89;85.52;93161.53;5089009;28;20185;-71
2022/12/25 00:10:30;;;;;;;11.03;10.40;;;;;;;7.98;85.80;93159.28;5089338;28;20181;-71
2022/12/25 00:12:56;;;;;;;11.97;11.27;;;;;;;7.96;85.66;93145.72;5088780;28;20200;-73
2022/12/25 00:15:21;;;;;;;12.50;11.70;;;;;;;7.97;85.35;93165.47;5088608;28;20224;-70
2022/12/25 00:17:47;;;;;;;11.50;10.83;;;;;;;8.04;85.29;93172.06;5087469;28;20224;-70
2022/12/25 00:20:12;;;;;;;11.60;10.90;;;;;;;8.07;85.92;93173.38;5089194;28;20216;-70
2022/12/25 00:22:37;;;;;;;11.60;11.00;;;;;;;7.88;87.66;93159.97;5088789;28;20221;-70
2022/12/25 00:25:03;;;;;;;11.67;10.83;;;;;;;7.39;87.10;93109.13;5088847;28;20194;-70
2022/12/25 00:27:32;;;;;;;11.53;10.93;;;;;;;7.79;88.09;93171.84;5091224;28;20224;-70
2022/12/25 00:29:58;;;;;;;10.17;9.67;;;;;;;7.92;87.69;93168.81;5091990;28;20165;-70
2022/12/25 00:32:23;;;;;;;10.57;10.00;;;;;;;7.92;86.50;93171.44;5085915;28;20235;-70
2022/12/25 00:34:48;;;;;;;12.03;11.23;;;;;;;7.93;85.92;93167.81;5092390;28;20177;-70
2022/12/25 00:37:14;;;;;;;11.67;11.07;;;;;;;7.90;85.57;93178.72;5072814;28;20229;-70
2022/12/25 00:39:39;;;;;;;10.70;10.07;;;;;;;7.99;84.47;93181.63;5074764;28;20185;-70
2022/12/25 00:42:20;;;;;;;11.23;10.73;;;;;;;8.14;83.37;93179.94;5092458;28;20512;-70
2022/12/25 00:44:49;;;;;;;9.73;9.23;;;;;;;8.09;83.26;93187.69;5092762;28;20191;-71
2022/12/25 00:47:16;;;;;;;9.77;9.37;;;;;;;7.95;84.08;93175.38;5092202;28;20218;-71
2022/12/25 00:49:41;;;;;;;11.43;10.80;;;;;;;7.72;85.38;93171.25;5089473;28;20196;-71
2022/12/25 00:52:07;;;;;;;10.73;10.13;;;;;;;7.63;87.03;93161.56;5072983;28;20233;-71
2022/12/25 00:54:33;;;;;;;9.27;8.87;;;;;;;7.64;88.47;93169.09;5085044;28;20283;-71
2022/12/25 00:56:58;;;;;;;10.93;10.33;;;;;;;7.70;87.93;93165.56;5087547;28;20270;-71
2022/12/25 00:59:23;;;;;;;14.20;13.03;;;;;;;7.70;87.09;93162.94;5092831;28;20176;-71
2022/12/25 01:01:49;;;;;;;11.13;10.40;;;;;;;7.70;88.39;93168.16;5080287;28;20292;-71
2022/12/25 01:04:14;;;;;;;10.23;9.73;;;;;;;7.67;88.66;93163.41;5092704;28;20189;-71
2022/12/25 01:06:40;;;;;;;11.27;10.50;;;;;;;7.68;89.40;93162.41;5091918;28;20271;-71
2022/12/25 01:11:49;;;;;;;11.40;10.60;;;;;;;7.52;90.88;93160.69;5091822;28;20242;-71
2022/12/25 01:14:15;;;;;;;11.40;10.70;;;;;;;7.44;90.58;93142.94;5092528;28;20240;-71
2022/12/25 01:16:42;;;;;;;10.67;9.87;;;;;;;7.51;89.91;93160.94;5087372;28;20232;-72
2022/12/25 01:19:09;;;;;;;10.20;9.73;;;;;;;7.62;84.52;93167.81;5091586;28;20193;-72
2022/12/25 01:21:34;;;;;;;11.10;10.63;;;;;;;7.65;84.81;93169.91;5091540;28;20217;-71
2022/12/25 01:23:59;;;;;;;10.73;10.23;;;;;;;7.67;82.32;93158.22;5091536;28;20188;-74
2022/12/25 01:26:26;;;;;;;10.30;9.80;;;;;;;7.72;82.60;93173.88;5090936;28;20253;-73
2022/12/25 01:28:52;;;;;;;10.70;10.20;;;;;;;7.58;84.40;93164.91;5092043;28;20184;-72
2022/12/25 01:31:20;;;;;;;10.73;10.03;;;;;;;7.58;83.25;93164.91;5086219;28;20258;-72
2022/12/25 01:33:46;;;;;;;9.63;9.13;;;;;;;7.70;82.90;93162.16;5092295;28;20180;-72
2022/12/25 01:36:21;;;;;;;11.77;10.97;;;;;;;7.73;82.99;93172.84;5091366;28;20235;-72
2022/12/25 01:38:48;;;;;;;10.40;9.90;;;;;;;7.75;81.29;93162.97;5073668;28;20184;-72
2022/12/25 01:41:15;;;;;;;9.67;9.27;;;;;;;7.63;81.42;93148.56;5079389;28;20219;-72
2022/12/25 01:44:04;;;;;;;11.17;10.13;;;;;;;7.59;81.79;93165.69;5091952;28;21023;-72
2022/12/25 01:46:30;;;;;;;10.67;9.80;;;;;;;7.55;84.31;93162.81;5084496;28;20292;-72
2022/12/25 01:48:59;;;;;;;11.13;10.60;;;;;;;7.33;85.95;93141.28;5091406;28;20185;-72
2022/12/25 01:51:34;;;;;;;10.97;10.47;;;;;;;7.37;84.30;93163.16;5091217;28;20228;-72
2022/12/25 01:54:04;;;;;;;10.93;10.33;;;;;;;7.47;83.13;93162.47;5091580;28;20259;-72
2022/12/25 01:56:31;;;;;;;11.30;10.70;;;;;;;7.40;82.48;93156.69;5073255;28;20262;-72
2022/12/25 01:58:58;;;;;;;12.43;11.73;;;;;;;7.42;82.32;93154.63;5091381;28;20185;-72
2022/12/25 02:01:23;;;;;;;11.17;10.57;;;;;;;7.44;81.55;93166.31;5090727;28;20221;-72
2022/12/25 02:03:52;;;;;;;10.23;9.63;;;;;;;7.43;82.23;93151.78;5091493;28;20218;-72
2022/12/25 02:06:18;;;;;;;11.73;10.83;;;;;;;7.26;82.07;93160.69;5090938;28;20307;-72
2022/12/25 02:08:43;;;;;;;9.43;9.00;;;;;;;7.20;82.63;93162.47;5091278;28;20169;-72
2022/12/25 02:11:55;;;;;;;12.10;11.40;;;;;;;7.17;83.12;93162.97;5090894;28;20220;-72
2022/12/25 02:13:55;;;;;;;11.60;10.83;;;;;;;7.02;83.98;93154.97;5091164;28;20189;-72
2022/12/25 02:16:25;;;;;;;10.50;10.00;;;;;;;7.02;84.27;93162.78;5085966;28;20239;-73
2022/12/25 02:18:55;;;;;;;11.00;10.47;;;;;;;7.11;82.86;93156.16;5090970;28;20181;-72
2022/12/25 02:21:36;;;;;;;10.67;10.10;;;;;;;7.24;81.86;93166.13;5090418;28;20296;-72
2022/12/25 02:24:20;;;;;;;10.33;9.83;;;;;;;7.10;82.38;93171.94;5090961;28;20195;-73
2022/12/25 02:27:06;;;;;;;10.40;9.80;;;;;;;7.14;81.63;93168.63;5072351;28;20221;-72
2022/12/25 02:29:38;;;;;;;10.97;10.40;;;;;;;7.42;78.25;93165.81;5085629;28;20200;-72
2022/12/25 02:32:21;;;;;;;10.63;10.13;;;;;;;7.45;77.87;93167.91;5090347;28;20299;-72
2022/12/25 02:34:54;;;;;;;10.00;9.50;;;;;;;7.25;78.17;93162.53;5091159;28;20173;-72
2022/12/25 02:37:30;;;;;;;9.50;9.10;;;;;;;7.30;76.81;93162.56;5090182;28;20231;-72
2022/12/25 02:40:08;;;;;;;10.80;10.10;;;;;;;7.50;75.58;93170.53;5071909;28;20239;-72
2022/12/25 03:07:51;;;;;;;9.10;8.70;;;;;;;7.14;75.54;93166.03;5089908;28;20238;-73
2022/12/25 03:13:26;;;;;;;10.60;9.70;;;;;;;7.29;73.89;93192.16;5081769;28;20208;-72
2022/12/25 03:18:36;;;;;;;9.83;9.23;;;;;;;7.34;72.58;93186.22;5095745;28;20195;-73
2022/12/25 03:26:53;;;;;;;9.33;8.93;;;;;;;7.22;74.01;93207.13;5087879;28;20243;-72
2022/12/25 03:32:14;;;;;;;9.77;9.27;;;;;;;7.21;74.89;93197.78;5089872;28;20249;-72
2022/12/25 03:44:44;;;;;;;11.50;10.80;;;;;;;7.51;73.80;93207.69;5089704;28;20215;-72
2022/12/25 04:37:16;;;;;;;10.13;9.63;;;;;;;7.17;74.36;93230.47;5085569;28;20230;-72
2022/12/25 04:39:41;;;;;;;9.83;9.23;;;;;;;7.16;74.90;93244.44;5092513;28;20946;-71
2022/12/25 04:42:06;;;;;;;9.93;9.43;;;;;;;7.37;74.08;93250.66;5087986;28;20288;-72
2022/12/25 04:44:32;;;;;;;9.83;9.23;;;;;;;7.25;75.25;93253.41;5092847;28;20209;-73
2022/12/25 04:46:57;;;;;;;9.27;8.87;;;;;;;7.08;75.64;93244.88;5092563;28;20245;-72
2022/12/25 04:49:22;;;;;;;9.63;9.13;;;;;;;7.23;76.26;93265.84;5074874;28;20240;-72
2022/12/25 04:51:48;;;;;;;9.53;9.13;;;;;;;7.07;78.35;93260.69;5092601;28;20225;-72
2022/12/25 04:54:13;;;;;;;11.17;10.30;;;;;;;7.19;79.72;93264.75;5092224;28;20184;-71
2022/12/25 04:56:39;;;;;;;10.03;9.63;;;;;;;6.89;79.65;93251.41;5091139;28;20263;-72
2022/12/25 04:59:05;;;;;;;9.90;9.50;;;;;;;6.87;79.02;93240.47;5083121;28;20176;-72
2022/12/25 05:01:30;;;;;;;11.93;10.83;;;;;;;7.04;78.08;93241.19;5090763;28;20232;-71
2022/12/25 05:03:55;;;;;;;9.90;9.40;;;;;;;7.12;77.87;93274.53;5091711;28;20271;-71
2022/12/25 05:06:21;;;;;;;10.23;9.83;;;;;;;7.52;81.80;93256.81;5091173;28;20217;-72
2022/12/25 05:08:46;;;;;;;10.20;9.70;;;;;;;7.44;79.09;93257.25;5091447;28;20193;-73
2022/12/25 05:11:14;;;;;;;9.67;9.17;;;;;;;7.38;79.65;93270.41;5067800;28;20271;-71
2022/12/25 05:13:40;;;;;;;10.30;9.73;;;;;;;7.25;76.01;93258.59;5070884;28;20187;-70
2022/12/25 05:16:12;;;;;;;10.27;9.77;;;;;;;7.27;75.64;93261.72;5081989;28;20221;-72
2022/12/25 05:18:38;;;;;;;9.43;8.90;;;;;;;7.19;76.14;93264.75;5081246;28;20182;-72
2022/12/25 05:21:04;;;;;;;9.97;9.50;;;;;;;7.37;75.80;93284.44;5087163;28;20235;-71
2022/12/25 05:23:29;;;;;;;9.60;9.10;;;;;;;7.32;76.02;93279.19;5086382;28;20238;-72
2022/12/25 05:25:55;;;;;;;9.80;9.40;;;;;;;7.16;77.22;93274.84;5089712;28;20205;-71
2022/12/25 05:28:20;;;;;;;9.97;9.30;;;;;;;7.24;75.76;93280.38;5081368;28;20220;-72
2022/12/25 05:30:46;;;;;;;10.20;9.70;;;;;;;7.25;75.01;93266.41;5090591;28;20221;-73
2022/12/25 05:33:11;;;;;;;10.70;9.80;;;;;;;7.40;75.22;93286.53;5089452;28;20248;-72
2022/12/25 05:35:37;;;;;;;14.93;13.37;;;;;;;7.40;74.93;93281.34;5090805;28;20222;-72
2022/12/25 05:38:04;;;;;;;11.77;11.07;;;;;;;7.39;74.01;93272.75;5089740;28;20352;-71
2022/12/25 05:40:29;;;;;;;10.93;10.43;;;;;;;7.57;75.89;93271.66;5067813;28;20189;-72
2022/12/25 05:42:54;;;;;;;9.87;9.37;;;;;;;7.30;74.20;93279.41;5071443;28;20215;-72
2022/12/25 05:45:20;;;;;;;11.17;10.47;;;;;;;7.46;74.83;93294.16;5090502;28;20181;-72
2022/12/25 05:47:45;;;;;;;10.23;9.77;;;;;;;7.44;74.88;93292.84;5090120;28;20235;-72
2022/12/25 05:50:11;;;;;;;10.00;9.40;;;;;;;7.40;74.96;93282.16;5090798;28;20267;-72
2022/12/25 05:52:36;;;;;;;10.80;10.20;;;;;;;7.36;76.08;93277.69;5079447;28;20258;-72
2022/12/25 05:55:01;;;;;;;10.73;10.10;;;;;;;7.26;76.59;93286.13;5090239;28;20212;-71
2022/12/25 05:57:28;;;;;;;9.57;9.17;;;;;;;7.15;77.17;93299.22;5089706;28;20254;-72
2022/12/25 05:59:53;;;;;;;10.13;9.63;;;;;;;7.09;76.83;93293.19;5090375;28;20195;-72
2022/12/25 06:02:19;;;;;;;11.03;10.43;;;;;;;7.11;77.43;93303.34;5089594;28;20224;-72
2022/12/25 06:04:44;;;;;;;10.00;9.37;;;;;;;7.11;77.85;93296.34;5090734;28;20185;-72
2022/12/25 06:07:10;;;;;;;9.90;9.50;;;;;;;7.25;77.64;93314.94;5089380;28;20216;-72
2022/12/25 06:09:35;;;;;;;10.63;10.10;;;;;;;7.38;78.37;93309.38;5073070;28;20207;-72
2022/12/25 06:12:00;;;;;;;10.90;10.30;;;;;;;7.16;78.38;93291.19;5089691;28;20715;-72
2022/12/25 06:14:26;;;;;;;10.93;10.43;;;;;;;7.10;77.20;93275.78;5090335;28;20193;-71
2022/12/25 06:16:52;;;;;;;10.37;9.53;;;;;;;7.42;76.79;93319.06;5088665;28;20225;-71
2022/12/25 06:19:18;;;;;;;10.00;9.47;;;;;;;7.42;76.73;93321.66;5082571;28;20207;-72
2022/12/25 06:21:44;;;;;;;10.43;9.87;;;;;;;7.40;76.73;93325.50;5084176;28;20233;-71
2022/12/25 06:24:09;;;;;;;10.57;9.80;;;;;;;7.49;77.34;93319.66;5089691;28;20193;-72
2022/12/25 06:26:34;;;;;;;9.83;9.40;;;;;;;7.51;76.38;93341.00;5088607;28;20266;-72
2022/12/25 06:29:00;;;;;;;9.90;9.30;;;;;;;7.57;75.73;93345.22;5089441;28;20185;-71
2022/12/25 06:31:26;;;;;;;10.00;9.60;;;;;;;7.62;75.90;93337.50;5089052;28;20223;-72
2022/12/25 06:33:52;;;;;;;10.40;9.90;;;;;;;7.48;76.46;93314.69;5089671;28;20248;-71
2022/12/25 06:36:21;;;;;;;10.53;10.03;;;;;;;7.59;77.01;93332.78;5088820;28;20228;-72
2022/12/25 06:38:46;;;;;;;10.00;9.47;;;;;;;7.55;77.90;93330.88;5089418;28;20188;-73
2022/12/25 06:41:15;;;;;;;10.30;9.80;;;;;;;7.60;76.82;93354.34;5091175;28;20219;-72
2022/12/25 06:43:40;;;;;;;10.03;9.50;;;;;;;7.53;77.44;93354.50;5096718;28;20216;-72
2022/12/25 06:46:10;;;;;;;10.60;10.00;;;;;;;7.54;77.11;93361.28;5088984;28;20698;-72
2022/12/25 06:48:37;;;;;;;10.27;9.77;;;;;;;7.54;78.05;93361.28;5089403;28;20191;-72
2022/12/25 06:51:04;;;;;;;10.03;9.43;;;;;;;7.65;77.44;93372.59;5088967;28;20224;-71
2022/12/25 06:53:30;;;;;;;10.73;10.00;;;;;;;7.71;77.70;93377.59;5071220;28;20200;-72
2022/12/25 06:56:07;;;;;;;11.00;10.40;;;;;;;7.65;78.23;93360.38;5087309;28;20236;-72
2022/12/25 06:58:33;;;;;;;11.33;10.73;;;;;;;7.59;77.83;93381.34;5088921;28;20185;-72
2022/12/25 07:00:58;;;;;;;10.07;9.57;;;;;;;7.65;77.32;93377.78;5089694;28;20230;-72
2022/12/25 07:03:27;;;;;;;10.23;9.73;;;;;;;7.68;77.30;93378.09;5088484;28;20196;-71
2022/12/25 07:05:52;;;;;;;10.33;9.77;;;;;;;7.70;77.36;93391.63;5079161;28;20745;-72
2022/12/25 07:08:18;;;;;;;10.80;10.20;;;;;;;7.69;78.32;93410.03;5079667;28;20181;-73
2022/12/25 07:10:43;;;;;;;10.50;9.90;;;;;;;7.76;79.90;93400.28;5074485;28;20217;-72
2022/12/25 07:13:08;;;;;;;10.40;9.70;;;;;;;7.69;77.62;93405.66;5082817;28;20877;-73
2022/12/25 07:15:34;;;;;;;11.10;10.30;;;;;;;7.71;77.77;93416.59;5081637;28;20298;-72
2022/12/25 07:17:59;;;;;;;9.73;9.20;;;;;;;7.74;78.18;93407.53;5088705;28;20191;-71
2022/12/25 07:20:25;;;;;;;10.83;10.23;;;;;;;7.69;77.82;93397.06;5088230;28;20280;-71
2022/12/25 07:22:50;;;;;;;10.83;10.23;;;;;;;7.67;78.45;93412.13;5084822;28;20185;-72
2022/12/25 07:25:15;;;;;;;10.10;9.60;;;;;;;7.81;78.25;93416.69;5088766;28;20212;-72
2022/12/25 07:27:41;;;;;;;9.47;9.07;;;;;;;7.75;78.22;93417.66;5088435;28;20288;-69
2022/12/25 07:30:07;;;;;;;10.57;9.87;;;;;;;7.80;78.05;93428.13;5088661;28;20185;-69
2022/12/25 07:32:32;;;;;;;10.63;10.13;;;;;;;7.76;78.39;93421.88;5087424;28;20236;-70
2022/12/25 07:34:58;;;;;;;9.77;9.23;;;;;;;7.85;77.90;93423.00;5089377;28;20195;-69
2022/12/25 07:37:23;;;;;;;12.37;11.37;;;;;;;7.75;77.77;93409.88;5086943;28;20912;-71
2022/12/25 07:39:48;;;;;;;10.83;10.33;;;;;;;7.90;78.35;93424.88;5088007;28;20244;-72
2022/12/25 07:42:14;;;;;;;11.30;10.73;;;;;;;7.75;77.89;93424.69;5090585;28;20278;-70
2022/12/25 07:44:39;;;;;;;10.43;9.93;;;;;;;7.86;77.94;93442.75;5088040;28;20184;-67
2022/12/25 07:47:04;;;;;;;10.27;9.57;;;;;;;7.87;77.76;93444.34;5088050;28;20303;-70
2022/12/25 07:49:30;;;;;;;10.83;10.00;;;;;;;7.99;77.39;93444.22;5070650;28;20180;-70
2022/12/25 07:51:56;;;;;;;10.93;10.33;;;;;;;7.69;77.45;93417.84;5085430;28;20224;-71
2022/12/25 07:54:21;;;;;;;10.13;9.60;;;;;;;7.99;78.46;93460.63;5086422;28;20191;-69
2022/12/25 07:56:53;;;;;;;10.20;9.80;;;;;;;7.92;77.73;93465.19;5088130;28;20230;-68
2022/12/25 07:59:19;;;;;;;11.37;10.40;;;;;;;7.91;76.96;93445.44;5088431;28;20236;-68
2022/12/25 08:01:44;;;;;;;11.00;10.20;;;;;;;7.92;77.42;93452.19;5088073;28;20228;-68
2022/12/25 08:04:10;;;;;;;10.77;10.23;;;;;;;7.92;77.63;93452.19;5088567;28;20192;-67
2022/12/25 08:06:37;;;;;;;10.43;9.83;;;;;;;7.97;77.07;93454.88;5086083;28;20252;-68
2022/12/25 08:09:05;;;;;;;10.53;10.00;;;;;;;8.09;75.82;93452.16;5087616;28;20188;-68
2022/12/25 08:11:31;;;;;;;13.57;12.33;;;;;;;8.20;75.70;93485.81;5085982;28;20245;-69
2022/12/25 08:13:56;;;;;;;16.53;14.87;;;;;;;8.25;74.63;93481.75;5084906;28;20188;-69
2022/12/25 08:16:22;;;;;;;14.33;13.33;;;;;;;8.28;74.55;93473.47;5087152;28;20219;-68
2022/12/25 08:18:47;;;;;;;10.07;9.50;;;;;;;8.30;74.53;93490.41;5088189;28;20185;-69
2022/12/25 08:21:14;;;;;;;10.10;9.33;;;;;;;8.27;74.25;93469.28;5083508;28;20223;-69
2022/12/25 08:23:43;;;;;;;11.80;11.07;;;;;;;8.40;73.96;93476.72;5084149;28;20246;-72
2022/12/25 08:26:12;;;;;;;11.97;11.27;;;;;;;8.50;73.50;93476.84;5085401;28;20229;-72
2022/12/25 08:28:38;;;;;;;10.63;10.03;;;;;;;8.44;73.59;93475.19;5088508;28;20192;-73
2022/12/25 08:31:14;;;;;;;12.43;11.33;;;;;;;8.39;72.48;93467.34;5087330;28;20293;-71
2022/12/25 08:33:41;;;;;;;11.30;10.57;;;;;;;8.54;72.32;93473.50;5088122;28;20200;-71
2022/12/25 08:36:09;;;;;;;11.47;10.67;;;;;;;8.60;72.56;93463.91;5086941;28;20249;-70
2022/12/25 08:38:35;;;;;;;9.73;9.33;;;;;;;8.63;71.08;93463.44;5084114;28;20219;-71
2022/12/25 08:41:01;;;;;;;11.10;10.50;;;;;;;8.72;70.13;93460.16;5087422;28;20224;-71
2022/12/25 08:43:26;;;;;;;17.93;16.57;;;;;;;8.76;71.13;93463.84;5088134;28;20185;-70
2022/12/25 08:45:51;;;;;;;11.87;11.07;;;;;;;8.81;70.01;93471.69;5087410;28;20267;-68
2022/12/25 08:48:17;;;;;;;10.87;10.07;;;;;;;8.82;69.84;93467.28;5089567;28;20187;-72
2022/12/25 08:50:50;;;;;;;10.70;10.07;;;;;;;8.82;70.14;93472.47;5089357;28;20232;-72
2022/12/25 08:53:16;;;;;;;10.43;9.93;;;;;;;8.93;69.39;93469.72;5090920;28;20180;-72
2022/12/25 08:55:42;;;;;;;10.70;10.00;;;;;;;8.93;69.26;93481.94;5090622;28;20315;-72
2022/12/25 08:58:07;;;;;;;10.23;9.80;;;;;;;8.95;70.20;93488.47;5091330;28;20177;-72
2022/12/25 09:00:32;;;;;;;9.77;9.27;;;;;;;8.95;70.04;93488.47;5091134;28;20211;-71
2022/12/25 09:02:58;;;;;;;9.50;9.03;;;;;;;8.97;69.12;93480.41;5091525;28;20185;-72
2022/12/25 09:05:23;;;;;;;9.60;9.20;;;;;;;8.94;69.40;93479.09;5087370;28;20207;-71
2022/12/25 09:07:49;;;;;;;12.53;11.47;;;;;;;8.95;68.55;93485.09;5080907;28;20215;-73
2022/12/25 09:10:14;;;;;;;16.93;13.97;;;;;;;9.03;68.81;93476.81;5091134;28;20188;-69
2022/12/25 09:12:39;;;;;;;11.73;10.90;;;;;;;9.20;68.94;93493.13;5090733;28;20229;-69
2022/12/25 09:15:05;;;;;;;9.90;9.30;;;;;;;9.08;66.42;93476.88;5088364;28;20201;-69
2022/12/25 09:17:32;;;;;;;13.00;11.80;;;;;;;9.22;66.54;93493.66;5090620;28;20295;-69
2022/12/25 09:19:57;;;;;;;10.07;9.40;;;;;;;9.22;66.62;93498.88;5087163;28;20195;-67
2022/12/25 09:22:23;;;;;;;10.87;9.87;;;;;;;9.23;66.57;93497.84;5087825;28;20224;-71
2022/12/25 09:24:48;;;;;;;9.63;9.10;;;;;;;9.33;66.68;93500.53;5090406;28;20250;-72
2022/12/25 09:27:13;;;;;;;11.50;10.80;;;;;;;9.32;68.20;93498.97;5090582;28;20220;-72
2022/12/25 09:29:39;;;;;;;11.70;10.90;;;;;;;9.29;66.61;93497.63;5090845;28;20208;-72
2022/12/25 09:32:05;;;;;;;12.23;11.40;;;;;;;9.33;66.15;93500.53;5090805;28;20231;-71
2022/12/25 09:34:31;;;;;;;12.73;11.83;;;;;;;9.25;65.74;93490.56;5090684;28;20195;-68
2022/12/25 09:36:56;;;;;;;11.63;10.73;;;;;;;9.42;66.60;93499.03;5090225;28;20224;-68
2022/12/25 09:39:22;;;;;;;10.70;10.07;;;;;;;9.48;66.72;93498.81;5089621;28;20189;-68
2022/12/25 09:42:02;;;;;;;10.60;9.90;;;;;;;9.55;65.09;93494.19;5087897;28;20224;-68
2022/12/25 09:44:35;;;;;;;12.30;11.57;;;;;;;9.58;64.95;93498.13;5090326;28;20195;-68
2022/12/25 09:47:05;;;;;;;12.40;11.60;;;;;;;9.61;64.45;93497.63;5090435;28;20250;-69
2022/12/25 09:49:42;;;;;;;9.57;9.07;;;;;;;9.68;64.30;93498.97;5086537;28;20206;-69
2022/12/25 09:52:15;;;;;;;9.97;9.43;;;;;;;9.55;65.16;93481.16;5090095;28;20284;-69
2022/12/25 09:54:43;;;;;;;13.10;12.27;;;;;;;9.59;63.83;93497.06;5090356;28;20207;-69
2022/12/25 09:57:12;;;;;;;10.37;9.67;;;;;;;9.65;63.86;93493.47;5089534;28;20227;-69
2022/12/25 09:59:38;;;;;;;9.83;9.43;;;;;;;9.64;63.73;93487.47;5083628;28;20185;-69
2022/12/25 10:02:41;;;;;;;9.93;9.53;;;;;;;9.57;63.74;93484.28;5089990;28;20221;-69
2022/12/25 10:05:28;;;;;;;10.67;10.07;;;;;;;9.67;64.26;93486.19;5089907;28;20252;-69
2022/12/25 10:08:02;;;;;;;10.70;9.77;;;;;;;9.71;63.96;93482.06;5087816;28;20209;-69
2022/12/25 10:11:05;;;;;;;10.20;9.70;;;;;;;9.67;65.00;93483.56;5084210;28;20206;-70
2022/12/25 10:14:08;;;;;;;9.87;9.47;;;;;;;9.84;64.41;93476.38;5084685;28;20214;-69
2022/12/25 10:17:04;;;;;;;10.67;10.03;;;;;;;9.67;64.55;93465.31;5085188;28;20237;-69
2022/12/25 10:19:55;;;;;;;10.80;10.10;;;;;;;9.82;63.57;93479.22;5062645;28;20211;-69
2022/12/25 10:22:32;;;;;;;10.30;9.80;;;;;;;9.92;64.97;93482.94;5088971;28;20217;-70
2022/12/25 10:25:01;;;;;;;9.90;9.50;;;;;;;9.83;65.11;93472.22;5089822;28;20199;-69
2022/12/25 10:27:35;;;;;;;9.77;9.33;;;;;;;9.80;64.42;93473.47;5089453;28;20236;-69
2022/12/25 10:30:15;;;;;;;9.67;9.17;;;;;;;9.72;65.52;93468.75;5084752;28;20176;-69
2022/12/25 10:32:42;;;;;;;10.77;10.17;;;;;;;9.84;65.95;93481.59;5087372;28;20251;-71
2022/12/25 10:35:16;;;;;;;11.17;10.50;;;;;;;9.84;64.35;93481.59;5089074;28;20185;-72
2022/12/25 10:37:45;;;;;;;9.93;9.53;;;;;;;9.84;64.63;93465.94;5093900;28;20248;-71
2022/12/25 10:40:26;;;;;;;10.63;10.03;;;;;;;9.95;65.02;93485.03;5086849;28;20192;-70
2022/12/25 10:43:00;;;;;;;10.07;9.47;;;;;;;9.96;65.72;93478.78;5085756;28;20218;-68
2022/12/25 10:45:25;;;;;;;10.33;9.73;;;;;;;9.86;65.84;93483.94;5084040;28;20181;-71
2022/12/25 10:48:03;;;;;;;9.70;9.23;;;;;;;9.92;65.67;93475.91;5085389;28;20217;-70
2022/12/25 10:50:29;;;;;;;10.67;9.90;;;;;;;9.98;66.32;93474.88;5085913;28;20251;-69
2022/12/25 10:53:04;;;;;;;10.87;10.17;;;;;;;10.04;65.44;93476.47;5093082;28;20257;-71
2022/12/25 10:55:31;;;;;;;9.80;9.40;;;;;;;9.97;65.05;93475.94;5088499;28;20211;-71
2022/12/25 10:57:57;;;;;;;9.20;8.80;;;;;;;9.94;65.27;93458.19;5067018;28;20191;-69
2022/12/25 11:00:31;;;;;;;9.53;9.10;;;;;;;10.03;64.79;93474.91;5079099;28;20173;-70
2022/12/25 11:02:57;;;;;;;10.77;10.00;;;;;;;10.07;64.68;93480.41;5079531;28;20208;-70
2022/12/25 11:05:27;;;;;;;10.17;9.60;;;;;;;10.06;64.53;93479.63;5090943;28;20180;-72
2022/12/25 11:07:53;;;;;;;9.87;9.30;;;;;;;10.10;65.58;93482.56;5081309;28;20185;-73
2022/12/25 11:10:24;;;;;;;10.50;9.90;;;;;;;10.14;66.40;93476.56;5081677;28;20173;-71
2022/12/25 11:12:51;;;;;;;10.23;9.63;;;;;;;10.05;65.29;93472.84;5087722;28;20197;-73
2022/12/25 11:15:29;;;;;;;9.83;9.43;;;;;;;10.15;65.10;93472.91;5088085;28;20181;-69
2022/12/25 16:50:54;;;;;;;13.80;12.50;;;;;;;7.99;73.83;93575.03;5114896;27;20600;-69
2022/12/25 16:53:20;;;;;;;14.23;13.23;;;;;;;8.04;71.62;93590.72;5105307;28;20254;-70
2022/12/25 16:55:45;;;;;;;11.13;10.63;;;;;;;8.16;70.40;93593.19;5125005;27;20273;-69
2022/12/25 16:58:10;;;;;;;12.93;12.03;;;;;;;8.05;71.10;93599.28;5101810;28;20187;-69
2022/12/25 17:00:36;;;;;;;12.33;11.63;;;;;;;7.95;71.39;93607.72;5094867;28;20292;-71
2022/12/25 17:03:02;;;;;;;10.10;9.70;;;;;;;8.09;70.39;93611.56;5093708;28;20259;-70
2022/12/25 17:05:27;;;;;;;11.47;10.77;;;;;;;8.23;69.93;93609.47;5101265;28;20284;-72
2022/12/25 17:07:52;;;;;;;12.70;12.00;;;;;;;8.16;70.14;93596.59;5093825;28;20177;-71
2022/12/25 17:10:18;;;;;;;11.53;10.93;;;;;;;8.17;69.99;93613.75;5099787;28;20255;-70
2022/12/25 17:12:44;;;;;;;12.27;11.37;;;;;;;8.13;70.14;93615.28;5097608;28;20195;-70
2022/12/25 17:15:10;;;;;;;13.17;12.37;;;;;;;8.07;70.45;93616.22;5102666;28;20243;-71
2022/12/25 17:17:35;;;;;;;13.50;12.40;;;;;;;8.11;69.97;93614.72;5096359;28;20200;-71
2022/12/25 17:20:01;;;;;;;13.27;12.27;;;;;;;8.17;70.03;93613.00;5103871;28;20730;-71
2022/12/25 17:22:26;;;;;;;12.83;11.90;;;;;;;8.09;69.98;93621.19;5094794;28;20207;-71
2022/12/25 17:24:51;;;;;;;12.87;11.80;;;;;;;7.87;71.91;93615.13;5098089;28;20228;-70
2022/12/25 17:27:17;;;;;;;12.60;11.60;;;;;;;7.86;70.69;93619.53;5096220;28;20207;-70
2022/12/25 17:29:42;;;;;;;12.70;11.73;;;;;;;7.94;70.48;93616.53;5100897;28;20225;-72
2022/12/25 17:32:10;;;;;;;13.30;12.30;;;;;;;8.01;72.44;93632.78;5101045;28;20203;-71
2022/12/25 17:34:36;;;;;;;11.07;10.37;;;;;;;8.29;74.65;93629.31;5095085;28;20258;-71
2022/12/25 17:37:02;;;;;;;12.67;11.87;;;;;;;8.16;71.28;93643.41;5104610;28;20953;-72
2022/12/25 17:39:27;;;;;;;12.40;11.50;;;;;;;7.78;71.40;93622.53;5099943;28;20243;-74
2022/12/25 17:41:53;;;;;;;10.97;10.47;;;;;;;7.82;71.59;93639.25;5094983;28;20177;-71
2022/12/25 17:44:19;;;;;;;10.87;10.17;;;;;;;7.95;70.62;93643.34;5099999;28;20435;-72
2022/12/25 17:46:45;;;;;;;10.87;10.37;;;;;;;7.99;70.54;93645.22;5095807;28;20204;-74
2022/12/25 17:49:15;;;;;;;10.57;9.87;;;;;;;8.03;69.92;93642.94;5095973;28;20842;-72
2022/12/25 17:51:40;;;;;;;11.50;10.87;;;;;;;7.90;70.52;93645.84;5082150;28;20205;-73
2022/12/25 17:54:05;;;;;;;17.60;15.97;;;;;;;8.09;70.30;93647.97;5083587;28;20232;-74
2022/12/25 17:56:31;;;;;;;16.30;14.83;;;;;;;8.14;71.19;93655.84;5082373;28;20193;-74
2022/12/25 17:58:59;;;;;;;13.03;12.27;;;;;;;8.04;70.22;93647.91;5081406;28;20208;-74
2022/12/25 18:01:27;;;;;;;10.30;9.67;;;;;;;8.00;70.57;93633.78;5086725;28;20193;-72
2022/12/25 18:03:53;;;;;;;11.10;10.43;;;;;;;8.16;69.73;93640.81;5082271;28;20199;-73
2022/12/25 18:06:22;;;;;;;14.90;13.90;;;;;;;7.97;70.26;93636.88;5081369;28;20232;-74
2022/12/25 18:08:48;;;;;;;14.30;13.50;;;;;;;7.97;70.22;93634.28;5083726;28;20191;-73
2022/12/25 18:11:19;;;;;;;11.40;10.70;;;;;;;7.97;70.46;93639.47;5081690;28;20177;-73
2022/12/25 18:13:48;;;;;;;10.47;9.97;;;;;;;8.03;74.24;93648.16;5089186;28;20202;-72
2022/12/25 18:16:14;;;;;;;11.97;10.90;;;;;;;7.86;70.79;93642.16;5091105;28;20193;-73
2022/12/25 18:18:40;;;;;;;9.97;9.37;;;;;;;7.97;69.74;93642.06;5085525;28;20216;-73
2022/12/25 18:21:07;;;;;;;12.00;11.40;;;;;;;8.02;70.53;93655.16;5087086;28;20193;-72
2022/12/25 18:23:32;;;;;;;11.53;10.83;;;;;;;8.01;69.75;93651.00;5082017;28;20196;-71
2022/12/25 18:26:02;;;;;;;11.37;10.67;;;;;;;7.89;71.42;93650.25;5077768;28;20229;-71
2022/12/25 18:28:28;;;;;;;12.80;12.10;;;;;;;7.93;71.79;93646.19;5085274;28;20189;-71
2022/12/25 18:30:54;;;;;;;11.23;10.33;;;;;;;7.85;71.03;93641.38;5086346;28;20235;-72
2022/12/25 18:33:19;;;;;;;12.07;11.33;;;;;;;7.72;70.65;93636.47;5086329;28;20185;-72
2022/12/25 18:35:45;;;;;;;15.83;14.63;;;;;;;8.05;78.18;93643.47;5089163;28;20307;-71
2022/12/25 18:38:12;;;;;;;31.10;28.63;;;;;;;7.79;73.05;93647.50;5085150;28;20185;-71
2022/12/25 18:40:46;;;;;;;45.23;30.03;;;;;;;7.64;72.81;93641.28;5082493;28;20284;-71
2022/12/25 18:43:12;;;;;;;16.77;15.53;;;;;;;7.49;72.69;93644.41;5082306;28;20240;-72
2022/12/25 18:45:37;;;;;;;13.87;12.90;;;;;;;7.37;72.86;93648.88;5077750;28;20228;-69
2022/12/25 18:48:05;;;;;;;13.67;12.87;;;;;;;7.45;72.99;93658.91;5082132;28;20220;-71